Accueil
METAR-TAF:

METAR-TAF

Aéroports :

Gênes, Italie

Aéroport de Gênes-Christophe Colomb

latitude: 44-25N, longitude: 008-51E, altitude: 2 m

Observation

Le bulletin a été fait il y a 22 minutes, à 09:50 UTC
Vent 3 kt de direction variable
Température 13°C
Humidité 51%
Pression 1007 hPa
Visibilité 10 km ou plus
Quelques nuages à une hauteur de 3500 ft

METAR: LIMJ 280950Z VRB03KT 9999 FEW035 13/03 Q1007

Heure: 12:12 (10:12 UTC)

Prévision

Le bulletin a été fait il y a 5 heures et 12 minutes, à 05:00 UTC
Prévision valable du 28 à 06 UTC au 29 à 06 UTC
Vent 12 kt de sud
Visibilité 10 km ou plus
Nuages épars à une hauteur de 1500 ft
Nuages fragmentés à une hauteur de 3500 ft
Evoluant progressivement
du 28 à 08 UTC au 28 à 10 UTC
Vent 12 kt de nord

TAF: LIMJ 280500Z 2806/2906 18012KT 9999 SCT015 BKN035 BECMG 2808/2810 35012KT

Observations et prévisions météorologiques de plus de 4000 aéroports (messages METAR et TAF).

Les stations disponibles sont représentées par des disques jaunes et rouges sur la carte.

Passer la souris dessus pour voir le nom de la station.

Cliquer dessus pour voir les observations et prévisions météorologiques.

Pour changer de carte: cliquez sur les boutons verts avec une croix noire pour zoomer, sur le bouton vert avec un tiret pour effectuer un zoom arrière, ou sur les flèches vertes pour les cartes adjacentes.


METAR-TAF: